Time;durP1;ratioP1;P1;durP2;ratioP2;P2;SDS_P1;SDS_P2;PMS_P1;PMS_P2;Temp;Humidity;BMP_temperature;BMP_pressure;BME280_temperature;BME280_humidity;BME280_pressure;Samples;Min_cycle;Max_cycle;Signal;HPM_P1;HPM_P2
2021/08/08 00:00:33;;;;;;;2.80;1.30;;;;;;;;;;5009453;28;20053;-77
2021/08/08 00:02:59;;;;;;;3.40;1.20;;;;;;;;;;4994789;28;20121;-76
2021/08/08 00:05:24;;;;;;;2.60;1.00;;;;;;;;;;4997460;28;20109;-77
2021/08/08 00:07:49;;;;;;;3.87;1.13;;;;;;;;;;4991375;28;20122;-76
2021/08/08 00:10:15;;;;;;;3.37;1.17;;;;;;;;;;4979620;28;20109;-76
2021/08/08 00:12:41;;;;;;;3.17;1.10;;;;;;;;;;5007718;28;20039;-76
2021/08/08 00:15:08;;;;;;;3.65;1.30;;;;;;;;;;4975056;28;20031;-76
2021/08/08 00:17:33;;;;;;;;;;;;;;;;;;4991707;28;20062;-76
2021/08/08 00:19:58;;;;;;;3.17;1.23;;;;;;;;;;4982892;28;19968;-77
2021/08/08 00:22:23;;;;;;;2.87;1.33;;;;;;;;;;4975141;28;20117;-76
2021/08/08 00:24:49;;;;;;;3.20;1.30;;;;;;;;;;4975045;28;20115;-76
2021/08/08 00:27:14;;;;;;;2.90;1.10;;;;;;;;;;5007467;28;20118;-76
2021/08/08 00:29:40;;;;;;;2.27;1.10;;;;;;;;;;4958692;28;20029;-77
2021/08/08 00:32:05;;;;;;;2.87;1.17;;;;;;;;;;5010369;28;20034;-76
2021/08/08 00:34:31;;;;;;;3.25;1.20;;;;;;;;;;5002294;28;20081;-77
2021/08/08 00:36:56;;;;;;;2.50;1.10;;;;;;;;;;4991037;28;20127;-76
2021/08/08 00:39:21;;;;;;;4.03;1.40;;;;;;;;;;4974593;28;20105;-76
2021/08/08 00:41:47;;;;;;;2.60;1.20;;;;;;;;;;4990882;28;20148;-76
2021/08/08 00:44:12;;;;;;;3.20;1.27;;;;;;;;;;5003984;28;20035;-77
2021/08/08 00:46:38;;;;;;;3.63;1.47;;;;;;;;;;4959504;28;20038;-76
2021/08/08 00:49:03;;;;;;;5.10;1.30;;;;;;;;;;4979436;28;20033;-76
2021/08/08 00:51:28;;;;;;;3.93;1.10;;;;;;;;;;4980004;28;20113;-76
2021/08/08 00:53:54;;;;;;;2.73;1.17;;;;;;;;;;4974374;28;20027;-76
2021/08/08 00:56:19;;;;;;;3.83;1.30;;;;;;;;;;5021820;28;20474;-76
2021/08/08 00:58:45;;;;;;;2.77;1.17;;;;;;;;;;4977271;28;20113;-76
2021/08/08 01:01:11;;;;;;;2.73;1.00;;;;;;;;;;4998650;28;20035;-76
2021/08/08 01:03:37;;;;;;;3.10;1.17;;;;;;;;;;5008635;28;20034;-76
2021/08/08 01:06:17;;;;;;;2.77;1.10;;;;;;;;;;4993543;28;20444;-77
2021/08/08 01:08:52;;;;;;;2.72;1.20;;;;;;;;;;4993588;28;20026;-77
2021/08/08 01:11:19;;;;;;;2.75;1.05;;;;;;;;;;4997780;28;20037;-77
2021/08/08 01:13:45;;;;;;;2.10;0.90;;;;;;;;;;4992701;28;20030;-76
2021/08/08 01:16:10;;;;;;;2.65;1.02;;;;;;;;;;4982170;28;20030;-76
2021/08/08 01:18:36;;;;;;;4.17;1.20;;;;;;;;;;4991081;28;20500;-77
2021/08/08 01:21:01;;;;;;;2.53;1.10;;;;;;;;;;4989988;28;20043;-77
2021/08/08 01:23:27;;;;;;;2.77;0.90;;;;;;;;;;4990059;28;20504;-76
2021/08/08 01:25:52;;;;;;;2.70;1.10;;;;;;;;;;4982355;28;20117;-76
2021/08/08 01:28:17;;;;;;;2.07;0.87;;;;;;;;;;4993496;28;20117;-76
2021/08/08 01:30:43;;;;;;;3.80;1.37;;;;;;;;;;4993086;28;20106;-77
2021/08/08 01:33:09;;;;;;;2.63;1.00;;;;;;;;;;4976932;28;20437;-76
2021/08/08 01:35:34;;;;;;;2.85;1.15;;;;;;;;;;4974892;28;20034;-77
2021/08/08 01:38:00;;;;;;;3.07;1.10;;;;;;;;;;4983396;28;20109;-77
2021/08/08 01:40:34;;;;;;;4.43;1.20;;;;;;;;;;4989968;28;20019;-77
2021/08/08 01:43:00;;;;;;;3.10;1.20;;;;;;;;;;4973474;28;20113;-76
2021/08/08 01:45:26;;;;;;;2.75;1.00;;;;;;;;;;4985663;28;20022;-77
2021/08/08 01:47:53;;;;;;;2.67;1.03;;;;;;;;;;5009390;28;20038;-76
2021/08/08 01:50:19;;;;;;;2.17;0.90;;;;;;;;;;5009187;28;20029;-76
2021/08/08 01:52:44;;;;;;;3.03;1.30;;;;;;;;;;4990682;28;20121;-76
2021/08/08 01:55:10;;;;;;;2.87;1.10;;;;;;;;;;4975656;28;20114;-76
2021/08/08 01:57:35;;;;;;;3.15;1.20;;;;;;;;;;5009087;28;20022;-76
2021/08/08 02:00:04;;;;;;;2.87;1.13;;;;;;;;;;4992641;28;20065;-76
2021/08/08 02:02:29;;;;;;;2.05;0.90;;;;;;;;;;5009479;28;20037;-76
2021/08/08 02:04:54;;;;;;;2.53;1.20;;;;;;;;;;4992243;28;20117;-77
2021/08/08 02:07:20;;;;;;;2.83;0.97;;;;;;;;;;4991436;28;20087;-77
2021/08/08 02:09:45;;;;;;;4.67;1.30;;;;;;;;;;4991713;28;20113;-76
2021/08/08 02:12:11;;;;;;;2.97;1.27;;;;;;;;;;4976247;28;20026;-77
2021/08/08 02:14:36;;;;;;;3.07;1.10;;;;;;;;;;5007331;28;20031;-77
2021/08/08 02:17:02;;;;;;;2.27;1.00;;;;;;;;;;5008902;28;20117;-76
2021/08/08 02:19:27;;;;;;;2.40;1.00;;;;;;;;;;5000784;28;20030;-77
2021/08/08 02:21:53;;;;;;;2.53;0.97;;;;;;;;;;4973232;28;20022;-77
2021/08/08 02:24:18;;;;;;;2.97;1.23;;;;;;;;;;4989133;28;20026;-77
2021/08/08 02:26:44;;;;;;;3.63;1.10;;;;;;;;;;5007822;28;20042;-76
2021/08/08 02:29:09;;;;;;;2.73;1.00;;;;;;;;;;5008762;28;20025;-76
2021/08/08 02:31:41;;;;;;;2.73;0.87;;;;;;;;;;5025368;28;20069;-76
2021/08/08 02:34:07;;;;;;;2.45;1.05;;;;;;;;;;4991431;28;20043;-76
2021/08/08 02:36:32;;;;;;;1.77;0.90;;;;;;;;;;5005957;28;20194;-77
2021/08/08 02:38:57;;;;;;;3.33;1.20;;;;;;;;;;5025327;28;20270;-76
2021/08/08 02:41:23;;;;;;;3.53;1.33;;;;;;;;;;4988986;28;20018;-76
2021/08/08 02:43:48;;;;;;;3.40;1.10;;;;;;;;;;5002833;28;20105;-77
2021/08/08 02:46:13;;;;;;;3.63;1.03;;;;;;;;;;4994430;28;20027;-76
2021/08/08 02:48:39;;;;;;;3.60;1.10;;;;;;;;;;4972805;28;20114;-76
2021/08/08 02:51:04;;;;;;;2.50;0.90;;;;;;;;;;4989103;28;20061;-76
2021/08/08 02:53:30;;;;;;;2.50;0.80;;;;;;;;;;4972650;28;20565;-76
2021/08/08 02:55:55;;;;;;;2.67;1.17;;;;;;;;;;4973828;28;20394;-76
2021/08/08 02:58:20;;;;;;;2.53;0.90;;;;;;;;;;4994547;28;20120;-77
2021/08/08 03:00:46;;;;;;;2.80;1.10;;;;;;;;;;5008612;28;20033;-76
2021/08/08 03:03:11;;;;;;;3.17;1.10;;;;;;;;;;5008371;28;20065;-76
2021/08/08 03:05:36;;;;;;;2.60;1.10;;;;;;;;;;5008508;28;20053;-76
2021/08/08 03:08:02;;;;;;;3.57;1.10;;;;;;;;;;4968547;28;20134;-76
2021/08/08 03:10:27;;;;;;;2.40;0.80;;;;;;;;;;4977509;28;20018;-77
2021/08/08 03:12:52;;;;;;;2.57;1.03;;;;;;;;;;5008385;28;20030;-76
2021/08/08 03:15:18;;;;;;;2.57;1.10;;;;;;;;;;4982493;28;20166;-77
2021/08/08 03:17:43;;;;;;;3.00;0.97;;;;;;;;;;4992820;28;20100;-77
2021/08/08 03:20:09;;;;;;;3.30;1.07;;;;;;;;;;4992515;28;20054;-76
2021/08/08 03:22:34;;;;;;;3.17;1.10;;;;;;;;;;4979442;28;20509;-76
2021/08/08 03:25:00;;;;;;;3.40;1.20;;;;;;;;;;5000103;28;20073;-76
2021/08/08 03:27:25;;;;;;;3.57;1.30;;;;;;;;;;5011718;28;20105;-77
2021/08/08 03:29:51;;;;;;;2.97;1.00;;;;;;;;;;5007256;28;20089;-76
2021/08/08 03:32:16;;;;;;;3.17;1.10;;;;;;;;;;4975888;28;20117;-76
2021/08/08 03:34:41;;;;;;;3.00;1.20;;;;;;;;;;4989973;28;20034;-76
2021/08/08 03:37:07;;;;;;;2.17;1.00;;;;;;;;;;4994907;28;20113;-76
2021/08/08 03:39:32;;;;;;;2.07;0.80;;;;;;;;;;4968466;28;20122;-76
2021/08/08 03:41:57;;;;;;;3.13;1.10;;;;;;;;;;4991866;28;20033;-76
2021/08/08 03:44:23;;;;;;;2.23;0.90;;;;;;;;;;4983189;28;20141;-77
2021/08/08 03:46:48;;;;;;;1.70;1.00;;;;;;;;;;5012682;28;20084;-76
2021/08/08 03:49:14;;;;;;;1.17;0.77;;;;;;;;;;5011841;28;20026;-76
2021/08/08 03:51:40;;;;;;;1.90;0.80;;;;;;;;;;4982551;28;20045;-76
2021/08/08 03:54:05;;;;;;;1.53;0.70;;;;;;;;;;4995252;28;20121;-76
2021/08/08 03:56:30;;;;;;;1.37;0.60;;;;;;;;;;5011359;28;20528;-76
2021/08/08 03:58:56;;;;;;;2.27;1.00;;;;;;;;;;5011273;28;20138;-76
2021/08/08 04:01:21;;;;;;;1.77;0.93;;;;;;;;;;4998315;28;20113;-76
2021/08/08 04:03:46;;;;;;;2.60;0.70;;;;;;;;;;4975273;28;20105;-76
2021/08/08 04:06:12;;;;;;;1.27;0.70;;;;;;;;;;4991801;28;20105;-76
2021/08/08 04:08:37;;;;;;;3.13;0.93;;;;;;;;;;4992560;28;20541;-77
2021/08/08 04:11:02;;;;;;;1.37;0.80;;;;;;;;;;4991373;28;20126;-76
2021/08/08 04:13:28;;;;;;;1.40;0.90;;;;;;;;;;4991220;28;20023;-76
2021/08/08 04:15:53;;;;;;;1.87;0.97;;;;;;;;;;5006937;28;20434;-76
2021/08/08 04:18:19;;;;;;;1.20;0.70;;;;;;;;;;4982722;28;20101;-77
2021/08/08 04:20:44;;;;;;;1.50;0.73;;;;;;;;;;5003234;23;20103;-79
2021/08/08 04:23:10;;;;;;;1.80;0.80;;;;;;;;;;4957662;28;20034;-79
2021/08/08 04:25:37;;;;;;;2.40;0.82;;;;;;;;;;4972428;28;20031;-79
2021/08/08 04:28:03;;;;;;;1.92;0.95;;;;;;;;;;4959437;28;20049;-79
2021/08/08 04:30:28;;;;;;;1.40;0.77;;;;;;;;;;4976625;28;20033;-79
2021/08/08 04:32:54;;;;;;;1.97;0.93;;;;;;;;;;4975701;28;20035;-79
2021/08/08 04:35:19;;;;;;;1.50;0.87;;;;;;;;;;4976343;28;20051;-79
2021/08/08 04:37:44;;;;;;;2.10;0.80;;;;;;;;;;4960713;28;20544;-79
2021/08/08 04:40:10;;;;;;;2.27;0.90;;;;;;;;;;4944380;28;20465;-79
2021/08/08 04:42:36;;;;;;;1.88;0.85;;;;;;;;;;4975665;28;20030;-79
2021/08/08 04:45:02;;;;;;;2.05;0.95;;;;;;;;;;4991190;28;20030;-77
2021/08/08 04:47:27;;;;;;;2.90;0.82;;;;;;;;;;4974308;28;20121;-77
2021/08/08 04:49:53;;;;;;;1.80;1.00;;;;;;;;;;4973273;28;20110;-77
2021/08/08 04:52:18;;;;;;;1.83;0.90;;;;;;;;;;4955111;28;20078;-77
2021/08/08 04:54:44;;;;;;;2.45;1.05;;;;;;;;;;4955339;29;20110;-77
2021/08/08 04:57:09;;;;;;;2.57;0.90;;;;;;;;;;4962282;28;20038;-77
2021/08/08 04:59:35;;;;;;;2.17;1.03;;;;;;;;;;4966546;28;20139;-77
2021/08/08 05:02:00;;;;;;;2.10;0.83;;;;;;;;;;4956101;28;20118;-77
2021/08/08 05:04:25;;;;;;;2.53;1.00;;;;;;;;;;4955569;28;20117;-77
2021/08/08 05:06:50;;;;;;;2.73;0.93;;;;;;;;;;4955075;29;20151;-77
2021/08/08 05:09:16;;;;;;;2.27;0.90;;;;;;;;;;4954836;29;20470;-76
2021/08/08 05:11:41;;;;;;;2.10;0.87;;;;;;;;;;4965156;28;20035;-76
2021/08/08 05:14:07;;;;;;;2.43;0.90;;;;;;;;;;4973963;28;20093;-77
2021/08/08 05:16:32;;;;;;;2.17;0.90;;;;;;;;;;4974150;28;20023;-77
2021/08/08 05:18:57;;;;;;;2.57;0.80;;;;;;;;;;4947584;28;20035;-77
2021/08/08 05:21:23;;;;;;;3.70;1.10;;;;;;;;;;4962454;28;20121;-77
2021/08/08 05:23:48;;;;;;;2.00;0.90;;;;;;;;;;4972330;28;20066;-79
2021/08/08 05:26:13;;;;;;;2.07;0.80;;;;;;;;;;4970250;28;20114;-78
2021/08/08 05:28:41;;;;;;;2.70;1.00;;;;;;;;;;4938216;28;20540;-78
2021/08/08 05:31:06;;;;;;;3.30;1.17;;;;;;;;;;4970063;28;20081;-77
2021/08/08 05:33:32;;;;;;;2.37;0.80;;;;;;;;;;4969772;28;20062;-77
2021/08/08 05:35:57;;;;;;;2.70;0.80;;;;;;;;;;4969707;28;20058;-78
2021/08/08 05:38:23;;;;;;;2.27;0.87;;;;;;;;;;4953398;28;20027;-77
2021/08/08 05:40:48;;;;;;;2.03;0.70;;;;;;;;;;4977269;28;20110;-77
2021/08/08 05:43:13;;;;;;;4.23;0.90;;;;;;;;;;4950535;28;20126;-76
2021/08/08 05:45:39;;;;;;;2.97;0.90;;;;;;;;;;4950894;29;20030;-77
2021/08/08 05:48:04;;;;;;;2.67;0.93;;;;;;;;;;4953277;28;20117;-77
2021/08/08 05:50:30;;;;;;;2.60;0.80;;;;;;;;;;4985556;28;20026;-77
2021/08/08 05:52:55;;;;;;;2.53;0.83;;;;;;;;;;4969785;28;20114;-77
2021/08/08 05:55:20;;;;;;;2.93;0.80;;;;;;;;;;4960777;28;20485;-77
2021/08/08 05:57:46;;;;;;;2.77;0.90;;;;;;;;;;4934469;29;20049;-77
2021/08/08 06:00:12;;;;;;;2.53;0.90;;;;;;;;;;4933956;29;20110;-77
2021/08/08 06:02:37;;;;;;;2.30;0.80;;;;;;;;;;4956156;28;20314;-77
2021/08/08 06:05:03;;;;;;;3.13;0.97;;;;;;;;;;4950315;28;20031;-76
2021/08/08 06:07:28;;;;;;;2.08;0.88;;;;;;;;;;4935118;28;20039;-78
2021/08/08 06:09:54;;;;;;;3.07;0.90;;;;;;;;;;4950133;28;20035;-77
2021/08/08 06:12:19;;;;;;;2.57;1.00;;;;;;;;;;4949838;29;20039;-77
2021/08/08 06:14:44;;;;;;;2.33;0.90;;;;;;;;;;4967090;28;20129;-77
2021/08/08 06:17:10;;;;;;;3.67;1.10;;;;;;;;;;4969499;28;20030;-77
2021/08/08 06:19:35;;;;;;;2.23;1.00;;;;;;;;;;4951237;28;20045;-77
2021/08/08 06:22:00;;;;;;;2.00;0.67;;;;;;;;;;4950889;28;20126;-77
2021/08/08 06:24:26;;;;;;;4.00;0.63;;;;;;;;;;4951639;28;20465;-77
2021/08/08 06:26:51;;;;;;;4.13;0.77;;;;;;;;;;4936018;29;20123;-76
2021/08/08 06:29:17;;;;;;;3.37;1.00;;;;;;;;;;4951744;29;20118;-77
2021/08/08 06:31:42;;;;;;;2.70;0.80;;;;;;;;;;4951797;28;20391;-79
2021/08/08 06:34:07;;;;;;;2.43;0.80;;;;;;;;;;4969346;28;20110;-78
2021/08/08 06:36:33;;;;;;;2.03;0.90;;;;;;;;;;4950526;28;20110;-78
2021/08/08 06:39:03;;;;;;;3.17;0.80;;;;;;;;;;4970851;28;20536;-78
2021/08/08 06:41:28;;;;;;;1.90;0.68;;;;;;;;;;4986471;28;20117;-78
2021/08/08 06:43:54;;;;;;;3.13;0.87;;;;;;;;;;4972305;28;20727;-78
2021/08/08 06:46:19;;;;;;;1.60;0.50;;;;;;;;;;4970554;28;20057;-78
2021/08/08 06:48:44;;;;;;;3.07;0.80;;;;;;;;;;4935487;29;20111;-77
2021/08/08 06:51:10;;;;;;;2.03;0.87;;;;;;;;;;4958915;28;20134;-77
2021/08/08 06:53:35;;;;;;;3.33;0.90;;;;;;;;;;4970603;28;20106;-77
2021/08/08 06:56:01;;;;;;;2.90;0.87;;;;;;;;;;4989250;28;20119;-77
2021/08/08 06:58:26;;;;;;;3.20;0.88;;;;;;;;;;4958383;28;20532;-77
2021/08/08 07:00:52;;;;;;;2.40;0.80;;;;;;;;;;4974396;28;20027;-77
2021/08/08 07:03:17;;;;;;;3.20;0.90;;;;;;;;;;4958406;28;20069;-77
2021/08/08 07:05:42;;;;;;;3.27;0.90;;;;;;;;;;4950936;28;20035;-77
2021/08/08 07:08:09;;;;;;;2.33;0.80;;;;;;;;;;4974639;28;20801;-78
2021/08/08 07:10:34;;;;;;;;;;;;;;;;;;4975019;28;20023;-78
2021/08/08 07:12:59;;;;;;;3.60;0.98;;;;;;;;;;4957985;28;19921;-78
2021/08/08 07:15:25;;;;;;;4.27;1.07;;;;;;;;;;4958365;28;20113;-78
2021/08/08 07:17:50;;;;;;;3.63;0.80;;;;;;;;;;4957809;28;20447;-78
2021/08/08 07:20:16;;;;;;;2.73;0.93;;;;;;;;;;4955084;28;20170;-78
2021/08/08 07:22:41;;;;;;;2.77;0.90;;;;;;;;;;4952454;28;20114;-77
2021/08/08 07:25:07;;;;;;;2.10;0.80;;;;;;;;;;4941776;28;20225;-77
2021/08/08 07:27:32;;;;;;;4.05;1.15;;;;;;;;;;4958143;28;20027;-78
2021/08/08 07:29:58;;;;;;;2.53;0.77;;;;;;;;;;4957577;28;20121;-78
2021/08/08 07:32:23;;;;;;;3.27;0.97;;;;;;;;;;4955123;28;20030;-78
2021/08/08 07:34:48;;;;;;;2.57;0.77;;;;;;;;;;4954965;29;20818;-78
2021/08/08 07:37:14;;;;;;;2.93;0.90;;;;;;;;;;4954457;29;20123;-78
2021/08/08 07:39:39;;;;;;;2.63;0.70;;;;;;;;;;4940135;28;20034;-77
2021/08/08 07:42:05;;;;;;;3.60;1.00;;;;;;;;;;4975797;28;20130;-77
2021/08/08 07:44:30;;;;;;;1.97;0.80;;;;;;;;;;4975759;28;20031;-77
2021/08/08 07:46:55;;;;;;;3.53;1.00;;;;;;;;;;4975587;28;20031;-77
2021/08/08 07:49:21;;;;;;;2.60;0.73;;;;;;;;;;4959636;28;20139;-77
2021/08/08 07:51:46;;;;;;;3.00;0.70;;;;;;;;;;4943484;28;20069;-77
2021/08/08 07:54:11;;;;;;;2.30;0.80;;;;;;;;;;4959466;28;20030;-77
2021/08/08 07:56:37;;;;;;;3.47;1.00;;;;;;;;;;4943606;28;20117;-77
2021/08/08 07:59:02;;;;;;;2.33;1.00;;;;;;;;;;4958685;28;20142;-77
2021/08/08 08:01:27;;;;;;;2.97;0.80;;;;;;;;;;4950398;28;20126;-77
2021/08/08 08:03:53;;;;;;;1.77;0.70;;;;;;;;;;4955804;28;20541;-77
2021/08/08 08:06:18;;;;;;;2.83;1.00;;;;;;;;;;4974874;28;20096;-77
2021/08/08 08:08:43;;;;;;;2.40;0.87;;;;;;;;;;4974662;28;20130;-76
2021/08/08 08:11:09;;;;;;;1.97;0.90;;;;;;;;;;4975277;28;20123;-77
2021/08/08 08:13:35;;;;;;;3.80;1.00;;;;;;;;;;4955964;28;20063;-77
2021/08/08 08:16:00;;;;;;;2.70;0.83;;;;;;;;;;4945096;29;20122;-76
2021/08/08 08:18:25;;;;;;;3.53;0.83;;;;;;;;;;4988160;28;20126;-77
2021/08/08 08:20:51;;;;;;;3.87;0.80;;;;;;;;;;4978199;28;20069;-76
2021/08/08 08:23:16;;;;;;;3.43;1.00;;;;;;;;;;4978290;28;20100;-77
2021/08/08 08:25:43;;;;;;;2.50;0.80;;;;;;;;;;4946806;28;20027;-76
2021/08/08 08:28:11;;;;;;;2.85;1.02;;;;;;;;;;4982882;28;20046;-78
2021/08/08 08:30:36;;;;;;;2.50;0.85;;;;;;;;;;4960461;28;20153;-78
2021/08/08 08:33:04;;;;;;;2.90;0.60;;;;;;;;;;4972253;28;20034;-79
2021/08/08 08:35:30;;;;;;;2.75;1.10;;;;;;;;;;5012283;28;20030;-79
2021/08/08 08:37:56;;;;;;;2.88;1.00;;;;;;;;;;4979486;28;20026;-78
2021/08/08 08:40:21;;;;;;;4.27;0.90;;;;;;;;;;4995479;28;20062;-78
2021/08/08 08:42:50;;;;;;;1.37;0.60;;;;;;;;;;4963225;28;20026;-78
2021/08/08 08:45:16;;;;;;;2.85;0.70;;;;;;;;;;4962882;28;20082;-78
2021/08/08 08:47:42;;;;;;;3.92;0.90;;;;;;;;;;4940918;29;20023;-79
2021/08/08 08:50:08;;;;;;;2.17;0.70;;;;;;;;;;4940886;29;20031;-79
2021/08/08 08:52:33;;;;;;;3.30;0.80;;;;;;;;;;4925268;29;20263;-79
2021/08/08 08:54:59;;;;;;;2.63;0.90;;;;;;;;;;4925085;29;20118;-79
2021/08/08 08:57:24;;;;;;;1.97;0.70;;;;;;;;;;4948696;28;20062;-79
2021/08/08 08:59:50;;;;;;;3.30;0.87;;;;;;;;;;4944337;28;20386;-78
2021/08/08 09:02:15;;;;;;;2.03;0.60;;;;;;;;;;4957231;28;20035;-78
2021/08/08 09:04:40;;;;;;;2.57;0.97;;;;;;;;;;4940717;29;20019;-79
2021/08/08 09:07:06;;;;;;;3.63;0.70;;;;;;;;;;4967307;28;20130;-78
2021/08/08 09:09:31;;;;;;;2.30;0.63;;;;;;;;;;4961235;28;20023;-79
2021/08/08 09:11:57;;;;;;;1.47;0.70;;;;;;;;;;4941191;28;20041;-79
2021/08/08 09:14:22;;;;;;;4.00;0.90;;;;;;;;;;4955808;29;20273;-78
2021/08/08 09:16:52;;;;;;;3.03;0.93;;;;;;;;;;4943034;29;20115;-79
2021/08/08 09:19:21;;;;;;;4.93;1.00;;;;;;;;;;4954767;28;20025;-79
2021/08/08 09:21:47;;;;;;;2.55;0.80;;;;;;;;;;4977928;28;20559;-79
2021/08/08 09:24:29;;;;;;;1.87;0.70;;;;;;;;;;4958088;28;20026;-79
2021/08/08 09:27:08;;;;;;;2.30;0.75;;;;;;;;;;4971561;28;20030;-79
2021/08/08 09:29:34;;;;;;;2.30;0.80;;;;;;;;;;4971907;28;20026;-79
2021/08/08 09:32:00;;;;;;;;;;;;;;;;;;4989234;28;20027;-79
2021/08/08 09:34:38;;;;;;;2.20;0.75;;;;;;;;;;4973383;28;19914;-79
2021/08/08 09:37:15;;;;;;;4.20;0.93;;;;;;;;;;4959772;28;20059;-79
2021/08/08 09:39:42;;;;;;;3.78;0.90;;;;;;;;;;4971054;28;20023;-79
2021/08/08 09:42:24;;;;;;;3.65;1.00;;;;;;;;;;4956156;28;20039;-79
2021/08/08 09:44:50;;;;;;;2.30;0.77;;;;;;;;;;4948050;28;20035;-79
2021/08/08 09:47:15;;;;;;;3.35;0.82;;;;;;;;;;4954966;28;20154;-78
2021/08/08 09:49:41;;;;;;;2.80;0.70;;;;;;;;;;4960975;28;20031;-79
2021/08/08 09:52:06;;;;;;;2.57;0.80;;;;;;;;;;4973120;28;20106;-79
2021/08/08 09:54:37;;;;;;;2.67;0.80;;;;;;;;;;4941479;28;20486;-79
2021/08/08 09:57:03;;;;;;;3.15;0.68;;;;;;;;;;4970807;28;20034;-79
2021/08/08 09:59:28;;;;;;;2.97;0.80;;;;;;;;;;4950147;28;20122;-79
2021/08/08 10:01:54;;;;;;;2.63;0.93;;;;;;;;;;4965731;28;20507;-79
2021/08/08 10:04:19;;;;;;;2.83;0.97;;;;;;;;;;4936693;28;20069;-78
2021/08/08 10:06:45;;;;;;;2.30;0.83;;;;;;;;;;4972559;28;20118;-79
2021/08/08 10:09:11;;;;;;;4.17;0.93;;;;;;;;;;4971507;28;20069;-78
2021/08/08 10:11:36;;;;;;;2.05;0.90;;;;;;;;;;4957730;28;20273;-80
2021/08/08 10:14:02;;;;;;;4.67;1.07;;;;;;;;;;4973147;28;20039;-80
2021/08/08 10:16:31;;;;;;;3.55;1.10;;;;;;;;;;4970130;28;20449;-78
2021/08/08 10:18:57;;;;;;;3.85;1.15;;;;;;;;;;4953128;28;20031;-80
2021/08/08 10:21:22;;;;;;;3.00;1.07;;;;;;;;;;4954435;28;20045;-80
2021/08/08 10:23:48;;;;;;;3.27;1.20;;;;;;;;;;4972183;28;20034;-80
2021/08/08 10:26:14;;;;;;;3.05;1.05;;;;;;;;;;4957288;28;20026;-81
2021/08/08 10:28:39;;;;;;;3.53;1.20;;;;;;;;;;4964458;28;20027;-80
2021/08/08 10:31:05;;;;;;;4.60;1.27;;;;;;;;;;4986296;28;20030;-80
2021/08/08 10:33:30;;;;;;;4.57;1.27;;;;;;;;;;4977173;28;20085;-80
2021/08/08 10:35:55;;;;;;;3.00;1.13;;;;;;;;;;4965568;28;20471;-81
2021/08/08 10:38:21;;;;;;;3.40;1.13;;;;;;;;;;4952641;28;20041;-79
2021/08/08 10:40:47;;;;;;;3.73;1.20;;;;;;;;;;4959996;28;20481;-80
2021/08/08 10:43:23;;;;;;;;;;;;;;;;;;4958877;28;20031;-80
2021/08/08 10:45:48;;;;;;;4.32;1.30;;;;;;;;;;4989599;28;20000;-80
2021/08/08 10:48:14;;;;;;;4.13;1.40;;;;;;;;;;4988759;28;20494;-80
2021/08/08 10:50:46;;;;;;;2.83;1.23;;;;;;;;;;4960991;28;20378;-80
2021/08/08 10:53:23;;;;;;;3.78;1.38;;;;;;;;;;4978199;28;20402;-80
2021/08/08 10:56:09;;;;;;;4.72;1.50;;;;;;;;;;4951602;28;20031;-81
2021/08/08 10:58:36;;;;;;;3.00;1.25;;;;;;;;;;4952777;28;20073;-80
2021/08/08 11:01:02;;;;;;;4.28;1.50;;;;;;;;;;4940630;28;20043;-81
2021/08/08 11:03:28;;;;;;;3.42;1.48;;;;;;;;;;4937404;28;20038;-79
2021/08/08 11:05:53;;;;;;;4.03;1.67;;;;;;;;;;4976353;28;20102;-79
2021/08/08 11:08:22;;;;;;;4.07;1.60;;;;;;;;;;4976178;28;20054;-78
2021/08/08 11:10:47;;;;;;;4.45;1.65;;;;;;;;;;4960012;28;20030;-78
2021/08/08 11:13:23;;;;;;;3.97;1.60;;;;;;;;;;4976012;28;20031;-79
2021/08/08 11:15:48;;;;;;;5.85;1.80;;;;;;;;;;4959632;28;20100;-80
2021/08/08 11:18:14;;;;;;;5.25;1.77;;;;;;;;;;4955117;28;20126;-78
2021/08/08 11:20:40;;;;;;;3.67;1.30;;;;;;;;;;4955296;29;20034;-78
2021/08/08 11:23:05;;;;;;;3.90;1.30;;;;;;;;;;4988297;28;20034;-78
2021/08/08 11:25:41;;;;;;;3.73;1.53;;;;;;;;;;4962666;28;20035;-78
2021/08/08 11:28:07;;;;;;;4.93;1.73;;;;;;;;;;4955352;28;20035;-77
2021/08/08 11:30:39;;;;;;;3.83;1.47;;;;;;;;;;4968330;28;20084;-78
2021/08/08 11:33:04;;;;;;;4.47;1.70;;;;;;;;;;4958055;28;20470;-78
2021/08/08 11:35:30;;;;;;;4.03;1.60;;;;;;;;;;4962204;28;20035;-77
2021/08/08 11:37:55;;;;;;;4.07;1.27;;;;;;;;;;4955603;28;20497;-77
2021/08/08 11:40:26;;;;;;;4.23;1.50;;;;;;;;;;4974432;28;20032;-77
2021/08/08 11:43:01;;;;;;;5.45;1.63;;;;;;;;;;4969890;28;20023;-77
2021/08/08 11:45:34;;;;;;;4.55;1.67;;;;;;;;;;4965694;28;20390;-77
2021/08/08 11:47:59;;;;;;;4.63;1.50;;;;;;;;;;4993404;28;20022;-78
2021/08/08 11:50:28;;;;;;;3.97;1.57;;;;;;;;;;5008774;28;20463;-77
2021/08/08 11:52:54;;;;;;;4.75;1.52;;;;;;;;;;4978613;28;20532;-77
2021/08/08 11:55:19;;;;;;;4.15;1.52;;;;;;;;;;4977561;28;20126;-78
2021/08/08 11:57:44;;;;;;;3.87;1.33;;;;;;;;;;4974834;28;20110;-78
2021/08/08 12:00:10;;;;;;;3.73;1.40;;;;;;;;;;4981946;28;20117;-78
2021/08/08 12:02:36;;;;;;;5.22;1.50;;;;;;;;;;4975316;28;20520;-78
2021/08/08 12:05:01;;;;;;;4.63;1.70;;;;;;;;;;4974796;28;20031;-81
2021/08/08 12:07:30;;;;;;;3.60;1.40;;;;;;;;;;4938869;29;20482;-81
2021/08/08 12:09:56;;;;;;;3.75;1.45;;;;;;;;;;4938605;29;20027;-78
2021/08/08 12:12:32;;;;;;;4.82;1.77;;;;;;;;;;4925484;28;20066;-79
2021/08/08 12:14:58;;;;;;;4.15;1.40;;;;;;;;;;4930947;28;20094;-79
2021/08/08 12:17:23;;;;;;;3.43;1.43;;;;;;;;;;4956634;28;20425;-79
2021/08/08 12:19:50;;;;;;;3.37;1.30;;;;;;;;;;4954080;29;20380;-79
2021/08/08 12:22:19;;;;;;;5.18;1.77;;;;;;;;;;4941400;28;20437;-79
2021/08/08 12:24:46;;;;;;;4.13;1.50;;;;;;;;;;4957661;28;20482;-80
2021/08/08 12:27:14;;;;;;;5.03;1.35;;;;;;;;;;4951323;28;20035;-81
2021/08/08 12:29:40;;;;;;;4.43;1.70;;;;;;;;;;4942643;28;20031;-81
2021/08/08 12:32:13;;;;;;;4.57;1.57;;;;;;;;;;4970206;28;20034;-81
2021/08/08 12:34:40;;;;;;;3.30;1.25;;;;;;;;;;4977522;28;20277;-81
2021/08/08 12:37:10;;;;;;;4.47;1.52;;;;;;;;;;4958444;28;20027;-81
2021/08/08 12:39:37;;;;;;;3.58;1.27;;;;;;;;;;4974102;28;20027;-81
2021/08/08 12:42:03;;;;;;;3.83;1.60;;;;;;;;;;4946570;28;20026;-80
2021/08/08 12:44:33;;;;;;;3.92;1.70;;;;;;;;;;4966648;23;20043;-75
2021/08/08 12:46:59;;;;;;;4.47;1.60;;;;;;;;;;4959057;28;20033;-75
2021/08/08 12:49:31;;;;;;;3.50;1.50;;;;;;;;;;4977835;28;20030;-75
2021/08/08 12:51:56;;;;;;;4.18;1.48;;;;;;;;;;4958859;28;20053;-75
2021/08/08 12:54:22;;;;;;;3.93;1.40;;;;;;;;;;4973862;28;20454;-75
2021/08/08 12:56:47;;;;;;;3.80;1.47;;;;;;;;;;4942631;28;20055;-75
2021/08/08 12:59:12;;;;;;;3.57;1.20;;;;;;;;;;4958437;28;20109;-75
2021/08/08 13:01:40;;;;;;;3.77;1.50;;;;;;;;;;4958197;28;20113;-75
2021/08/08 13:04:08;;;;;;;3.60;1.40;;;;;;;;;;4958292;28;20027;-75
2021/08/08 13:06:34;;;;;;;3.42;1.17;;;;;;;;;;4958392;28;20033;-75
2021/08/08 13:08:59;;;;;;;3.77;1.50;;;;;;;;;;4958651;28;20413;-75
2021/08/08 13:11:25;;;;;;;3.60;1.40;;;;;;;;;;4975708;28;20065;-75
2021/08/08 13:13:50;;;;;;;3.47;1.10;;;;;;;;;;4941982;28;20125;-75
2021/08/08 13:16:15;;;;;;;3.87;1.33;;;;;;;;;;4975279;28;20069;-75
2021/08/08 13:18:41;;;;;;;3.87;1.40;;;;;;;;;;4975214;28;20158;-75
2021/08/08 13:21:06;;;;;;;3.20;1.30;;;;;;;;;;4975575;28;20050;-75
2021/08/08 13:23:31;;;;;;;3.83;1.47;;;;;;;;;;4957885;28;20541;-75
2021/08/08 13:25:57;;;;;;;3.53;1.40;;;;;;;;;;4941877;28;20054;-75
2021/08/08 13:28:23;;;;;;;3.60;1.30;;;;;;;;;;4975325;28;20026;-75
2021/08/08 13:30:49;;;;;;;4.13;1.20;;;;;;;;;;4974894;28;20047;-75
2021/08/08 13:33:14;;;;;;;2.77;1.07;;;;;;;;;;4941914;28;20054;-75
2021/08/08 13:35:39;;;;;;;3.67;1.20;;;;;;;;;;4957656;28;20118;-75
2021/08/08 13:38:05;;;;;;;3.87;1.63;;;;;;;;;;4941590;28;20170;-75
2021/08/08 13:40:31;;;;;;;4.67;1.50;;;;;;;;;;4974841;28;20047;-75
2021/08/08 13:42:56;;;;;;;3.47;1.10;;;;;;;;;;4957539;28;20561;-75
2021/08/08 13:45:22;;;;;;;3.43;1.40;;;;;;;;;;4941611;28;20130;-75
2021/08/08 13:47:47;;;;;;;2.87;1.20;;;;;;;;;;4957422;28;20109;-75
2021/08/08 13:50:13;;;;;;;4.10;1.43;;;;;;;;;;4957362;28;20122;-75
2021/08/08 13:52:38;;;;;;;3.13;1.35;;;;;;;;;;4957395;28;20449;-75
2021/08/08 13:55:04;;;;;;;3.97;1.40;;;;;;;;;;4941683;28;20114;-75
2021/08/08 13:57:30;;;;;;;4.10;1.20;;;;;;;;;;4957388;28;20363;-75
2021/08/08 13:59:55;;;;;;;4.10;1.20;;;;;;;;;;4941345;28;20059;-75
2021/08/08 14:02:20;;;;;;;2.73;1.20;;;;;;;;;;4957276;28;20081;-75
2021/08/08 14:04:46;;;;;;;3.10;1.23;;;;;;;;;;4940419;28;20118;-75
2021/08/08 14:07:11;;;;;;;3.20;1.40;;;;;;;;;;4941624;28;20105;-75
2021/08/08 14:09:36;;;;;;;2.83;1.07;;;;;;;;;;4957194;28;20109;-75
2021/08/08 14:12:02;;;;;;;2.90;1.27;;;;;;;;;;4957167;28;20106;-75
2021/08/08 14:14:28;;;;;;;3.97;1.60;;;;;;;;;;4957116;28;20027;-75
2021/08/08 14:16:53;;;;;;;3.17;1.40;;;;;;;;;;4941105;28;20525;-75
2021/08/08 14:19:18;;;;;;;3.23;1.20;;;;;;;;;;4941244;28;20305;-75
2021/08/08 14:21:44;;;;;;;2.77;1.27;;;;;;;;;;4941021;28;20026;-75
2021/08/08 14:24:09;;;;;;;3.70;1.50;;;;;;;;;;4941013;28;20122;-75
2021/08/08 14:26:35;;;;;;;2.73;1.27;;;;;;;;;;4957203;28;20113;-75
2021/08/08 14:29:00;;;;;;;4.63;1.40;;;;;;;;;;4940960;28;20027;-75
2021/08/08 14:31:25;;;;;;;3.67;1.20;;;;;;;;;;4957096;28;20510;-75
2021/08/08 14:33:51;;;;;;;2.90;1.13;;;;;;;;;;4956886;28;20076;-75
2021/08/08 14:36:16;;;;;;;2.80;1.13;;;;;;;;;;4956904;28;20061;-75